sensor_id;sensor_type;location;lat;lon;timestamp;temperature;humidity
4727;DHT22;2377;51.734;8.950;2022-07-23T00:00:43;16.70;99.90
4727;DHT22;2377;51.734;8.950;2022-07-23T00:03:12;16.60;99.90
4727;DHT22;2377;51.734;8.950;2022-07-23T00:05:39;16.70;99.90
4727;DHT22;2377;51.734;8.950;2022-07-23T00:08:07;16.70;99.90
4727;DHT22;2377;51.734;8.950;2022-07-23T00:10:35;16.70;99.90
4727;DHT22;2377;51.734;8.950;2022-07-23T00:13:02;16.60;99.90
4727;DHT22;2377;51.734;8.950;2022-07-23T00:15:29;16.60;99.90
4727;DHT22;2377;51.734;8.950;2022-07-23T00:17:58;16.70;99.90
4727;DHT22;2377;51.734;8.950;2022-07-23T00:20:25;16.60;99.90
4727;DHT22;2377;51.734;8.950;2022-07-23T00:22:54;16.60;99.90
4727;DHT22;2377;51.734;8.950;2022-07-23T00:25:22;16.60;99.90
4727;DHT22;2377;51.734;8.950;2022-07-23T00:27:50;16.60;99.90
4727;DHT22;2377;51.734;8.950;2022-07-23T00:30:17;16.60;99.90
4727;DHT22;2377;51.734;8.950;2022-07-23T00:32:45;16.60;99.90
4727;DHT22;2377;51.734;8.950;2022-07-23T00:35:15;16.60;99.90
4727;DHT22;2377;51.734;8.950;2022-07-23T00:37:43;16.60;99.90
4727;DHT22;2377;51.734;8.950;2022-07-23T00:40:11;16.60;99.90
4727;DHT22;2377;51.734;8.950;2022-07-23T00:42:38;16.60;99.90
4727;DHT22;2377;51.734;8.950;2022-07-23T00:45:07;16.50;99.90
4727;DHT22;2377;51.734;8.950;2022-07-23T00:47:34;16.50;99.90
4727;DHT22;2377;51.734;8.950;2022-07-23T00:50:03;16.50;99.90
4727;DHT22;2377;51.734;8.950;2022-07-23T00:52:35;16.50;99.90
4727;DHT22;2377;51.734;8.950;2022-07-23T00:55:03;16.50;99.90
4727;DHT22;2377;51.734;8.950;2022-07-23T00:57:31;16.40;99.90
4727;DHT22;2377;51.734;8.950;2022-07-23T00:59:58;16.30;99.90
4727;DHT22;2377;51.734;8.950;2022-07-23T01:02:26;16.30;99.90
4727;DHT22;2377;51.734;8.950;2022-07-23T01:04:54;16.30;99.90
4727;DHT22;2377;51.734;8.950;2022-07-23T01:07:21;16.30;99.90
4727;DHT22;2377;51.734;8.950;2022-07-23T01:09:51;16.30;99.90
4727;DHT22;2377;51.734;8.950;2022-07-23T01:12:18;16.30;99.90
4727;DHT22;2377;51.734;8.950;2022-07-23T01:14:53;16.30;99.90
4727;DHT22;2377;51.734;8.950;2022-07-23T01:17:21;16.30;99.90
4727;DHT22;2377;51.734;8.950;2022-07-23T01:19:48;16.30;99.90
4727;DHT22;2377;51.734;8.950;2022-07-23T01:22:18;16.30;99.90
4727;DHT22;2377;51.734;8.950;2022-07-23T01:24:48;16.30;99.90
4727;DHT22;2377;51.734;8.950;2022-07-23T01:27:15;16.40;99.90
4727;DHT22;2377;51.734;8.950;2022-07-23T01:29:43;16.30;99.90
4727;DHT22;2377;51.734;8.950;2022-07-23T01:32:10;16.40;99.90
4727;DHT22;2377;51.734;8.950;2022-07-23T01:34:37;16.40;99.90
4727;DHT22;2377;51.734;8.950;2022-07-23T01:37:06;16.40;99.90
4727;DHT22;2377;51.734;8.950;2022-07-23T01:39:33;16.50;99.90
4727;DHT22;2377;51.734;8.950;2022-07-23T01:42:02;16.50;99.90
4727;DHT22;2377;51.734;8.950;2022-07-23T01:44:29;16.50;99.90
4727;DHT22;2377;51.734;8.950;2022-07-23T01:46:56;16.40;99.90
4727;DHT22;2377;51.734;8.950;2022-07-23T01:49:23;16.40;99.90
4727;DHT22;2377;51.734;8.950;2022-07-23T01:51:50;16.50;99.90
4727;DHT22;2377;51.734;8.950;2022-07-23T01:54:27;16.50;99.90
4727;DHT22;2377;51.734;8.950;2022-07-23T01:56:54;16.50;99.90
4727;DHT22;2377;51.734;8.950;2022-07-23T01:59:23;16.50;99.90
4727;DHT22;2377;51.734;8.950;2022-07-23T02:01:51;16.50;99.90
4727;DHT22;2377;51.734;8.950;2022-07-23T02:04:20;16.50;99.90
4727;DHT22;2377;51.734;8.950;2022-07-23T02:06:48;16.50;99.90
4727;DHT22;2377;51.734;8.950;2022-07-23T02:09:16;16.50;99.90
4727;DHT22;2377;51.734;8.950;2022-07-23T02:11:43;16.50;99.90
4727;DHT22;2377;51.734;8.950;2022-07-23T02:14:10;16.50;99.90
4727;DHT22;2377;51.734;8.950;2022-07-23T02:16:39;16.50;99.90
4727;DHT22;2377;51.734;8.950;2022-07-23T02:19:06;16.50;99.90
4727;DHT22;2377;51.734;8.950;2022-07-23T02:21:33;16.50;99.90
4727;DHT22;2377;51.734;8.950;2022-07-23T02:24:01;16.50;99.90
4727;DHT22;2377;51.734;8.950;2022-07-23T02:26:28;16.40;99.90
4727;DHT22;2377;51.734;8.950;2022-07-23T02:28:57;16.50;99.90
4727;DHT22;2377;51.734;8.950;2022-07-23T02:31:24;16.40;99.90
4727;DHT22;2377;51.734;8.950;2022-07-23T02:33:53;16.30;99.90
4727;DHT22;2377;51.734;8.950;2022-07-23T02:36:20;16.30;99.90
4727;DHT22;2377;51.734;8.950;2022-07-23T02:38:48;16.30;99.90
4727;DHT22;2377;51.734;8.950;2022-07-23T02:41:15;16.20;99.90
4727;DHT22;2377;51.734;8.950;2022-07-23T02:43:42;16.20;99.90
4727;DHT22;2377;51.734;8.950;2022-07-23T02:46:09;16.20;99.90
4727;DHT22;2377;51.734;8.950;2022-07-23T02:48:37;16.30;99.90
4727;DHT22;2377;51.734;8.950;2022-07-23T02:51:05;16.30;99.90
4727;DHT22;2377;51.734;8.950;2022-07-23T02:53:33;16.30;99.90
4727;DHT22;2377;51.734;8.950;2022-07-23T02:56:00;16.30;99.90
4727;DHT22;2377;51.734;8.950;2022-07-23T02:58:27;16.30;99.90
4727;DHT22;2377;51.734;8.950;2022-07-23T03:00:54;16.30;99.90
4727;DHT22;2377;51.734;8.950;2022-07-23T03:03:21;16.30;99.90
4727;DHT22;2377;51.734;8.950;2022-07-23T03:05:48;16.30;99.90
4727;DHT22;2377;51.734;8.950;2022-07-23T03:08:17;16.30;99.90
4727;DHT22;2377;51.734;8.950;2022-07-23T03:10:44;16.30;99.90
4727;DHT22;2377;51.734;8.950;2022-07-23T03:13:11;16.30;99.90
4727;DHT22;2377;51.734;8.950;2022-07-23T03:15:38;16.30;99.90
4727;DHT22;2377;51.734;8.950;2022-07-23T03:18:05;16.30;99.90
4727;DHT22;2377;51.734;8.950;2022-07-23T03:20:32;16.30;99.90
4727;DHT22;2377;51.734;8.950;2022-07-23T03:22:59;16.20;99.90
4727;DHT22;2377;51.734;8.950;2022-07-23T03:25:28;16.20;99.90
4727;DHT22;2377;51.734;8.950;2022-07-23T03:27:55;16.10;99.90
4727;DHT22;2377;51.734;8.950;2022-07-23T03:30:22;16.10;99.90
4727;DHT22;2377;51.734;8.950;2022-07-23T03:32:49;16.10;99.90
4727;DHT22;2377;51.734;8.950;2022-07-23T03:35:16;16.20;99.90
4727;DHT22;2377;51.734;8.950;2022-07-23T03:37:44;16.20;99.90
4727;DHT22;2377;51.734;8.950;2022-07-23T03:40:11;16.20;99.90
4727;DHT22;2377;51.734;8.950;2022-07-23T03:42:40;16.20;99.90
4727;DHT22;2377;51.734;8.950;2022-07-23T03:45:08;16.20;99.90
4727;DHT22;2377;51.734;8.950;2022-07-23T03:47:36;16.10;99.90
4727;DHT22;2377;51.734;8.950;2022-07-23T03:50:05;16.10;99.90
4727;DHT22;2377;51.734;8.950;2022-07-23T03:52:33;16.10;99.90
4727;DHT22;2377;51.734;8.950;2022-07-23T03:55:00;16.10;99.90
4727;DHT22;2377;51.734;8.950;2022-07-23T03:57:27;16.10;99.90
4727;DHT22;2377;51.734;8.950;2022-07-23T03:59:56;16.10;99.90
4727;DHT22;2377;51.734;8.950;2022-07-23T04:02:23;16.00;99.90
4727;DHT22;2377;51.734;8.950;2022-07-23T04:04:50;16.00;99.90
4727;DHT22;2377;51.734;8.950;2022-07-23T04:07:17;15.90;99.90
4727;DHT22;2377;51.734;8.950;2022-07-23T04:09:45;16.00;99.90
4727;DHT22;2377;51.734;8.950;2022-07-23T04:12:12;16.00;99.90
4727;DHT22;2377;51.734;8.950;2022-07-23T04:14:39;15.90;99.90
4727;DHT22;2377;51.734;8.950;2022-07-23T04:17:07;15.90;99.90
4727;DHT22;2377;51.734;8.950;2022-07-23T04:19:34;15.90;99.90
4727;DHT22;2377;51.734;8.950;2022-07-23T04:22:05;15.90;99.90
4727;DHT22;2377;51.734;8.950;2022-07-23T04:24:32;15.80;99.90
4727;DHT22;2377;51.734;8.950;2022-07-23T04:26:59;15.80;99.90
4727;DHT22;2377;51.734;8.950;2022-07-23T04:29:27;15.80;99.90
4727;DHT22;2377;51.734;8.950;2022-07-23T04:31:54;15.80;99.90
4727;DHT22;2377;51.734;8.950;2022-07-23T04:34:22;15.80;99.90
4727;DHT22;2377;51.734;8.950;2022-07-23T04:36:52;15.70;99.90
4727;DHT22;2377;51.734;8.950;2022-07-23T04:39:19;15.80;99.90
4727;DHT22;2377;51.734;8.950;2022-07-23T04:41:46;15.70;99.90
4727;DHT22;2377;51.734;8.950;2022-07-23T04:44:13;15.70;99.90
4727;DHT22;2377;51.734;8.950;2022-07-23T04:46:41;15.70;99.90
4727;DHT22;2377;51.734;8.950;2022-07-23T04:49:08;15.70;99.90
4727;DHT22;2377;51.734;8.950;2022-07-23T04:51:36;15.60;99.90
4727;DHT22;2377;51.734;8.950;2022-07-23T04:54:03;15.60;99.90
4727;DHT22;2377;51.734;8.950;2022-07-23T04:56:30;15.70;99.90
4727;DHT22;2377;51.734;8.950;2022-07-23T04:58:58;15.70;99.90
4727;DHT22;2377;51.734;8.950;2022-07-23T05:01:25;15.80;99.90
4727;DHT22;2377;51.734;8.950;2022-07-23T05:03:52;15.80;99.90
4727;DHT22;2377;51.734;8.950;2022-07-23T05:06:19;15.80;99.90
4727;DHT22;2377;51.734;8.950;2022-07-23T05:08:47;15.80;99.90
4727;DHT22;2377;51.734;8.950;2022-07-23T05:11:14;15.90;99.90
4727;DHT22;2377;51.734;8.950;2022-07-23T05:13:41;15.90;99.90
4727;DHT22;2377;51.734;8.950;2022-07-23T05:16:08;16.00;99.90
4727;DHT22;2377;51.734;8.950;2022-07-23T05:18:35;16.00;99.90
4727;DHT22;2377;51.734;8.950;2022-07-23T05:21:03;16.00;99.90
4727;DHT22;2377;51.734;8.950;2022-07-23T05:23:30;16.00;99.90
4727;DHT22;2377;51.734;8.950;2022-07-23T05:25:58;16.00;99.90
4727;DHT22;2377;51.734;8.950;2022-07-23T05:28:25;16.00;99.90
4727;DHT22;2377;51.734;8.950;2022-07-23T05:30:52;16.00;99.90
4727;DHT22;2377;51.734;8.950;2022-07-23T05:33:20;16.00;99.90
4727;DHT22;2377;51.734;8.950;2022-07-23T05:35:47;16.00;99.90
4727;DHT22;2377;51.734;8.950;2022-07-23T05:38:14;16.10;99.90
4727;DHT22;2377;51.734;8.950;2022-07-23T05:40:41;16.10;99.90
4727;DHT22;2377;51.734;8.950;2022-07-23T05:43:10;16.20;99.90
4727;DHT22;2377;51.734;8.950;2022-07-23T05:45:37;16.20;99.90
4727;DHT22;2377;51.734;8.950;2022-07-23T05:48:05;16.20;99.90
4727;DHT22;2377;51.734;8.950;2022-07-23T05:50:32;16.30;99.90
4727;DHT22;2377;51.734;8.950;2022-07-23T05:52:59;16.30;99.90
4727;DHT22;2377;51.734;8.950;2022-07-23T05:55:26;16.30;99.90
4727;DHT22;2377;51.734;8.950;2022-07-23T05:57:54;16.30;99.90
4727;DHT22;2377;51.734;8.950;2022-07-23T06:00:23;16.50;99.90
4727;DHT22;2377;51.734;8.950;2022-07-23T06:02:50;16.50;99.90
4727;DHT22;2377;51.734;8.950;2022-07-23T06:05:18;16.50;99.90
4727;DHT22;2377;51.734;8.950;2022-07-23T06:07:45;16.50;99.90
4727;DHT22;2377;51.734;8.950;2022-07-23T06:10:13;16.50;99.90
4727;DHT22;2377;51.734;8.950;2022-07-23T06:12:40;16.60;99.90
4727;DHT22;2377;51.734;8.950;2022-07-23T06:15:09;16.60;99.90
4727;DHT22;2377;51.734;8.950;2022-07-23T06:17:38;16.70;99.90
4727;DHT22;2377;51.734;8.950;2022-07-23T06:20:08;16.70;99.90
4727;DHT22;2377;51.734;8.950;2022-07-23T06:22:36;16.80;99.90
4727;DHT22;2377;51.734;8.950;2022-07-23T06:25:05;16.80;99.90
4727;DHT22;2377;51.734;8.950;2022-07-23T06:27:33;16.80;99.90
4727;DHT22;2377;51.734;8.950;2022-07-23T06:30:00;16.80;99.90
4727;DHT22;2377;51.734;8.950;2022-07-23T06:32:27;16.80;99.90
4727;DHT22;2377;51.734;8.950;2022-07-23T06:34:55;16.90;99.90
4727;DHT22;2377;51.734;8.950;2022-07-23T06:37:23;17.00;99.90
4727;DHT22;2377;51.734;8.950;2022-07-23T06:39:50;17.00;99.90
4727;DHT22;2377;51.734;8.950;2022-07-23T06:42:17;17.10;99.90
4727;DHT22;2377;51.734;8.950;2022-07-23T06:44:44;17.10;99.90
4727;DHT22;2377;51.734;8.950;2022-07-23T06:47:11;17.20;99.90
4727;DHT22;2377;51.734;8.950;2022-07-23T06:49:38;17.30;99.90
4727;DHT22;2377;51.734;8.950;2022-07-23T06:52:08;17.30;99.90
4727;DHT22;2377;51.734;8.950;2022-07-23T06:54:35;17.30;99.90
4727;DHT22;2377;51.734;8.950;2022-07-23T06:57:02;17.30;99.90
4727;DHT22;2377;51.734;8.950;2022-07-23T06:59:29;17.40;99.90
4727;DHT22;2377;51.734;8.950;2022-07-23T07:01:57;17.50;99.90
4727;DHT22;2377;51.734;8.950;2022-07-23T07:04:24;17.50;99.90
4727;DHT22;2377;51.734;8.950;2022-07-23T07:06:51;17.50;99.90
4727;DHT22;2377;51.734;8.950;2022-07-23T07:09:19;17.50;99.90
4727;DHT22;2377;51.734;8.950;2022-07-23T07:11:46;17.50;99.90
4727;DHT22;2377;51.734;8.950;2022-07-23T07:14:13;17.60;99.90
4727;DHT22;2377;51.734;8.950;2022-07-23T07:16:40;17.60;99.90
4727;DHT22;2377;51.734;8.950;2022-07-23T07:19:08;17.60;99.90
4727;DHT22;2377;51.734;8.950;2022-07-23T07:21:35;17.60;99.90
4727;DHT22;2377;51.734;8.950;2022-07-23T07:24:03;17.60;99.90
4727;DHT22;2377;51.734;8.950;2022-07-23T07:26:31;17.70;82.70
4727;DHT22;2377;51.734;8.950;2022-07-23T07:28:59;17.70;78.70
4727;DHT22;2377;51.734;8.950;2022-07-23T07:31:26;17.80;87.50
4727;DHT22;2377;51.734;8.950;2022-07-23T07:33:53;17.80;57.10
4727;DHT22;2377;51.734;8.950;2022-07-23T07:36:22;18.00;46.00
4727;DHT22;2377;51.734;8.950;2022-07-23T07:38:49;18.10;40.50
4727;DHT22;2377;51.734;8.950;2022-07-23T07:41:17;18.50;39.60
4727;DHT22;2377;51.734;8.950;2022-07-23T07:43:50;18.60;36.60
4727;DHT22;2377;51.734;8.950;2022-07-23T07:46:17;18.70;24.50
4727;DHT22;2377;51.734;8.950;2022-07-23T07:48:44;19.00;23.00
4727;DHT22;2377;51.734;8.950;2022-07-23T07:51:11;19.40;36.40
4727;DHT22;2377;51.734;8.950;2022-07-23T07:53:38;19.30;26.50
4727;DHT22;2377;51.734;8.950;2022-07-23T07:56:06;19.10;28.30
4727;DHT22;2377;51.734;8.950;2022-07-23T07:58:33;19.00;33.60
4727;DHT22;2377;51.734;8.950;2022-07-23T08:01:01;18.90;39.40
4727;DHT22;2377;51.734;8.950;2022-07-23T08:03:29;18.80;24.50
4727;DHT22;2377;51.734;8.950;2022-07-23T08:05:56;19.00;29.30
4727;DHT22;2377;51.734;8.950;2022-07-23T08:08:24;19.00;6.10
4727;DHT22;2377;51.734;8.950;2022-07-23T08:10:51;19.10;1.00
4727;DHT22;2377;51.734;8.950;2022-07-23T08:13:18;19.20;1.00
4727;DHT22;2377;51.734;8.950;2022-07-23T08:15:45;19.10;1.00
4727;DHT22;2377;51.734;8.950;2022-07-23T08:18:14;19.30;1.00
4727;DHT22;2377;51.734;8.950;2022-07-23T08:20:41;19.70;1.00
4727;DHT22;2377;51.734;8.950;2022-07-23T08:23:08;20.00;1.00
4727;DHT22;2377;51.734;8.950;2022-07-23T08:25:37;20.30;1.00
4727;DHT22;2377;51.734;8.950;2022-07-23T08:28:06;20.30;1.00
4727;DHT22;2377;51.734;8.950;2022-07-23T08:30:36;19.90;1.00
4727;DHT22;2377;51.734;8.950;2022-07-23T08:33:06;19.80;1.00
4727;DHT22;2377;51.734;8.950;2022-07-23T08:35:39;19.50;1.00
4727;DHT22;2377;51.734;8.950;2022-07-23T08:38:10;19.40;1.00
4727;DHT22;2377;51.734;8.950;2022-07-23T08:40:40;19.40;1.00
4727;DHT22;2377;51.734;8.950;2022-07-23T08:43:11;19.70;1.00
4727;DHT22;2377;51.734;8.950;2022-07-23T08:45:41;20.20;1.00
4727;DHT22;2377;51.734;8.950;2022-07-23T08:48:12;20.60;1.00
4727;DHT22;2377;51.734;8.950;2022-07-23T08:50:44;20.40;1.00
4727;DHT22;2377;51.734;8.950;2022-07-23T08:53:12;20.20;1.00
4727;DHT22;2377;51.734;8.950;2022-07-23T08:55:43;19.90;1.00
4727;DHT22;2377;51.734;8.950;2022-07-23T08:58:11;19.90;1.00
4727;DHT22;2377;51.734;8.950;2022-07-23T09:00:39;20.10;1.00
4727;DHT22;2377;51.734;8.950;2022-07-23T09:03:06;20.40;1.00
4727;DHT22;2377;51.734;8.950;2022-07-23T09:05:33;20.70;1.00
4727;DHT22;2377;51.734;8.950;2022-07-23T09:08:09;21.00;1.00
4727;DHT22;2377;51.734;8.950;2022-07-23T09:10:52;21.00;1.00
4727;DHT22;2377;51.734;8.950;2022-07-23T09:13:30;20.60;1.00
4727;DHT22;2377;51.734;8.950;2022-07-23T09:16:01;20.60;1.00
4727;DHT22;2377;51.734;8.950;2022-07-23T09:18:37;20.30;1.00
4727;DHT22;2377;51.734;8.950;2022-07-23T09:21:20;20.30;1.00
4727;DHT22;2377;51.734;8.950;2022-07-23T09:23:57;20.60;1.00
4727;DHT22;2377;51.734;8.950;2022-07-23T09:26:29;21.10;1.00
4727;DHT22;2377;51.734;8.950;2022-07-23T09:29:04;21.70;1.00
4727;DHT22;2377;51.734;8.950;2022-07-23T09:31:52;22.00;1.00
4727;DHT22;2377;51.734;8.950;2022-07-23T09:34:21;21.90;1.00
4727;DHT22;2377;51.734;8.950;2022-07-23T09:36:51;21.60;1.00
4727;DHT22;2377;51.734;8.950;2022-07-23T09:39:27;21.30;1.00
4727;DHT22;2377;51.734;8.950;2022-07-23T09:41:56;21.10;1.00
4727;DHT22;2377;51.734;8.950;2022-07-23T09:44:24;21.50;1.00
4727;DHT22;2377;51.734;8.950;2022-07-23T09:46:58;21.90;1.00
4727;DHT22;2377;51.734;8.950;2022-07-23T09:49:27;22.00;1.00
4727;DHT22;2377;51.734;8.950;2022-07-23T09:51:56;21.70;1.00
4727;DHT22;2377;51.734;8.950;2022-07-23T09:54:30;21.50;1.00
4727;DHT22;2377;51.734;8.950;2022-07-23T09:57:01;21.50;1.00
4727;DHT22;2377;51.734;8.950;2022-07-23T09:59:32;21.50;1.00
4727;DHT22;2377;51.734;8.950;2022-07-23T10:02:01;21.60;1.00
4727;DHT22;2377;51.734;8.950;2022-07-23T10:04:30;21.90;1.00
4727;DHT22;2377;51.734;8.950;2022-07-23T10:06:59;22.10;1.00
4727;DHT22;2377;51.734;8.950;2022-07-23T10:09:31;22.00;1.00
4727;DHT22;2377;51.734;8.950;2022-07-23T10:12:03;22.10;1.00
4727;DHT22;2377;51.734;8.950;2022-07-23T10:14:45;22.30;1.00
4727;DHT22;2377;51.734;8.950;2022-07-23T10:17:13;22.10;1.00
4727;DHT22;2377;51.734;8.950;2022-07-23T10:19:40;22.20;1.00
4727;DHT22;2377;51.734;8.950;2022-07-23T10:22:09;22.30;1.00
4727;DHT22;2377;51.734;8.950;2022-07-23T10:24:53;22.50;1.00
4727;DHT22;2377;51.734;8.950;2022-07-23T10:27:48;22.80;1.00
4727;DHT22;2377;51.734;8.950;2022-07-23T10:30:39;22.70;1.00
4727;DHT22;2377;51.734;8.950;2022-07-23T10:33:27;22.60;1.00
4727;DHT22;2377;51.734;8.950;2022-07-23T10:36:06;22.60;1.00
4727;DHT22;2377;51.734;8.950;2022-07-23T10:38:42;22.50;1.00
4727;DHT22;2377;51.734;8.950;2022-07-23T10:41:31;22.50;1.00
4727;DHT22;2377;51.734;8.950;2022-07-23T10:44:07;22.30;1.00
4727;DHT22;2377;51.734;8.950;2022-07-23T10:46:35;22.10;1.00
4727;DHT22;2377;51.734;8.950;2022-07-23T10:49:26;22.20;1.00
4727;DHT22;2377;51.734;8.950;2022-07-23T10:52:20;22.20;1.00
4727;DHT22;2377;51.734;8.950;2022-07-23T10:54:51;22.30;1.00
4727;DHT22;2377;51.734;8.950;2022-07-23T10:57:21;22.50;1.00
4727;DHT22;2377;51.734;8.950;2022-07-23T11:00:21;22.50;1.00
4727;DHT22;2377;51.734;8.950;2022-07-23T11:02:50;22.60;1.00
4727;DHT22;2377;51.734;8.950;2022-07-23T11:05:20;22.80;1.00
4727;DHT22;2377;51.734;8.950;2022-07-23T11:08:14;22.80;1.00
4727;DHT22;2377;51.734;8.950;2022-07-23T11:10:47;22.90;1.00
4727;DHT22;2377;51.734;8.950;2022-07-23T11:13:37;23.10;1.00
4727;DHT22;2377;51.734;8.950;2022-07-23T11:16:12;23.10;1.00
4727;DHT22;2377;51.734;8.950;2022-07-23T11:19:14;23.20;1.00
4727;DHT22;2377;51.734;8.950;2022-07-23T11:21:47;23.20;1.00
4727;DHT22;2377;51.734;8.950;2022-07-23T11:24:21;23.30;1.00
4727;DHT22;2377;51.734;8.950;2022-07-23T11:26:56;23.00;1.00
4727;DHT22;2377;51.734;8.950;2022-07-23T11:29:43;22.60;1.00
4727;DHT22;2377;51.734;8.950;2022-07-23T11:32:23;22.80;1.00
4727;DHT22;2377;51.734;8.950;2022-07-23T11:34:59;23.00;1.00
4727;DHT22;2377;51.734;8.950;2022-07-23T11:37:29;23.10;1.00
4727;DHT22;2377;51.734;8.950;2022-07-23T11:40:01;23.00;1.00
4727;DHT22;2377;51.734;8.950;2022-07-23T11:42:30;23.00;1.00
4727;DHT22;2377;51.734;8.950;2022-07-23T11:44:58;22.90;1.00
4727;DHT22;2377;51.734;8.950;2022-07-23T11:47:26;23.00;1.00
4727;DHT22;2377;51.734;8.950;2022-07-23T11:49:55;23.10;1.00
4727;DHT22;2377;51.734;8.950;2022-07-23T11:52:24;23.20;1.00
4727;DHT22;2377;51.734;8.950;2022-07-23T11:54:53;23.30;1.00
4727;DHT22;2377;51.734;8.950;2022-07-23T11:57:24;23.30;1.00
4727;DHT22;2377;51.734;8.950;2022-07-23T11:59:55;23.20;1.00
4727;DHT22;2377;51.734;8.950;2022-07-23T12:02:25;23.10;1.00
4727;DHT22;2377;51.734;8.950;2022-07-23T12:04:53;23.00;1.00
4727;DHT22;2377;51.734;8.950;2022-07-23T12:07:29;23.00;1.00
4727;DHT22;2377;51.734;8.950;2022-07-23T12:09:59;23.20;1.00
4727;DHT22;2377;51.734;8.950;2022-07-23T12:12:27;23.30;1.00
4727;DHT22;2377;51.734;8.950;2022-07-23T12:15:03;23.30;1.00
4727;DHT22;2377;51.734;8.950;2022-07-23T12:17:35;23.40;1.00
4727;DHT22;2377;51.734;8.950;2022-07-23T12:20:06;23.40;1.00
4727;DHT22;2377;51.734;8.950;2022-07-23T12:22:37;23.40;1.00
4727;DHT22;2377;51.734;8.950;2022-07-23T12:25:08;23.50;1.00
4727;DHT22;2377;51.734;8.950;2022-07-23T12:27:37;23.40;1.00
4727;DHT22;2377;51.734;8.950;2022-07-23T12:30:18;23.50;1.00
4727;DHT22;2377;51.734;8.950;2022-07-23T12:32:53;23.50;1.00
4727;DHT22;2377;51.734;8.950;2022-07-23T12:35:21;23.50;1.00
4727;DHT22;2377;51.734;8.950;2022-07-23T12:37:51;23.60;1.00
4727;DHT22;2377;51.734;8.950;2022-07-23T12:40:24;23.60;1.00
4727;DHT22;2377;51.734;8.950;2022-07-23T12:42:54;23.70;1.00
4727;DHT22;2377;51.734;8.950;2022-07-23T12:45:23;23.60;1.00
4727;DHT22;2377;51.734;8.950;2022-07-23T12:47:58;23.80;1.00
4727;DHT22;2377;51.734;8.950;2022-07-23T12:50:37;23.70;1.00
4727;DHT22;2377;51.734;8.950;2022-07-23T12:53:09;23.60;1.00
4727;DHT22;2377;51.734;8.950;2022-07-23T12:55:39;23.60;1.00
4727;DHT22;2377;51.734;8.950;2022-07-23T12:58:12;23.60;1.00
4727;DHT22;2377;51.734;8.950;2022-07-23T13:01:02;23.80;1.00
4727;DHT22;2377;51.734;8.950;2022-07-23T13:03:35;23.90;1.00
4727;DHT22;2377;51.734;8.950;2022-07-23T13:06:06;24.00;1.00
4727;DHT22;2377;51.734;8.950;2022-07-23T13:08:37;23.80;1.00
4727;DHT22;2377;51.734;8.950;2022-07-23T13:11:07;23.60;1.00
4727;DHT22;2377;51.734;8.950;2022-07-23T13:13:35;23.50;6.20
4727;DHT22;2377;51.734;8.950;2022-07-23T13:16:02;23.60;1.00
4727;DHT22;2377;51.734;8.950;2022-07-23T13:18:30;23.60;14.30
4727;DHT22;2377;51.734;8.950;2022-07-23T13:20:59;23.60;15.40
4727;DHT22;2377;51.734;8.950;2022-07-23T13:23:27;23.60;1.00
4727;DHT22;2377;51.734;8.950;2022-07-23T13:25:55;23.80;1.00
4727;DHT22;2377;51.734;8.950;2022-07-23T13:28:23;23.80;1.00
4727;DHT22;2377;51.734;8.950;2022-07-23T13:30:50;24.00;29.70
4727;DHT22;2377;51.734;8.950;2022-07-23T13:33:19;24.00;19.90
4727;DHT22;2377;51.734;8.950;2022-07-23T13:35:50;24.00;46.80
4727;DHT22;2377;51.734;8.950;2022-07-23T13:38:18;24.00;65.80
4727;DHT22;2377;51.734;8.950;2022-07-23T13:40:48;24.00;34.10
4727;DHT22;2377;51.734;8.950;2022-07-23T13:43:19;24.10;14.70
4727;DHT22;2377;51.734;8.950;2022-07-23T13:45:47;24.00;1.00
4727;DHT22;2377;51.734;8.950;2022-07-23T13:48:15;23.80;66.50
4727;DHT22;2377;51.734;8.950;2022-07-23T13:50:44;23.70;99.90
4727;DHT22;2377;51.734;8.950;2022-07-23T13:53:16;23.80;99.90
4727;DHT22;2377;51.734;8.950;2022-07-23T13:55:48;23.70;99.90
4727;DHT22;2377;51.734;8.950;2022-07-23T13:58:17;23.70;99.90
4727;DHT22;2377;51.734;8.950;2022-07-23T14:00:46;23.80;99.90
4727;DHT22;2377;51.734;8.950;2022-07-23T14:03:15;23.80;99.90
4727;DHT22;2377;51.734;8.950;2022-07-23T14:05:42;24.00;99.90
4727;DHT22;2377;51.734;8.950;2022-07-23T14:08:09;23.90;99.90
4727;DHT22;2377;51.734;8.950;2022-07-23T14:10:38;24.00;44.60
4727;DHT22;2377;51.734;8.950;2022-07-23T14:13:05;24.00;89.00
4727;DHT22;2377;51.734;8.950;2022-07-23T14:15:33;24.00;99.90
4727;DHT22;2377;51.734;8.950;2022-07-23T14:18:00;24.00;99.90
4727;DHT22;2377;51.734;8.950;2022-07-23T14:20:27;23.90;99.90
4727;DHT22;2377;51.734;8.950;2022-07-23T14:22:54;23.90;99.90
4727;DHT22;2377;51.734;8.950;2022-07-23T14:25:23;24.00;99.90
4727;DHT22;2377;51.734;8.950;2022-07-23T14:27:52;24.10;99.90
4727;DHT22;2377;51.734;8.950;2022-07-23T14:30:19;24.10;99.90
4727;DHT22;2377;51.734;8.950;2022-07-23T14:32:48;24.10;99.90
4727;DHT22;2377;51.734;8.950;2022-07-23T14:35:15;24.10;99.90
4727;DHT22;2377;51.734;8.950;2022-07-23T14:37:44;24.10;99.90
4727;DHT22;2377;51.734;8.950;2022-07-23T14:40:11;24.10;99.90
4727;DHT22;2377;51.734;8.950;2022-07-23T14:42:38;24.10;99.90
4727;DHT22;2377;51.734;8.950;2022-07-23T14:45:07;24.10;99.90
4727;DHT22;2377;51.734;8.950;2022-07-23T14:47:35;24.10;99.90
4727;DHT22;2377;51.734;8.950;2022-07-23T14:50:03;24.10;99.90
4727;DHT22;2377;51.734;8.950;2022-07-23T14:52:31;24.00;99.90
4727;DHT22;2377;51.734;8.950;2022-07-23T14:54:58;24.10;99.90
4727;DHT22;2377;51.734;8.950;2022-07-23T14:57:25;24.20;99.90
4727;DHT22;2377;51.734;8.950;2022-07-23T14:59:52;24.10;99.90
4727;DHT22;2377;51.734;8.950;2022-07-23T15:02:21;24.10;1.00
4727;DHT22;2377;51.734;8.950;2022-07-23T15:04:48;24.10;99.90
4727;DHT22;2377;51.734;8.950;2022-07-23T15:07:15;24.10;99.90
4727;DHT22;2377;51.734;8.950;2022-07-23T15:09:42;24.10;99.90
4727;DHT22;2377;51.734;8.950;2022-07-23T15:12:09;24.10;99.90
4727;DHT22;2377;51.734;8.950;2022-07-23T15:14:36;24.20;99.90
4727;DHT22;2377;51.734;8.950;2022-07-23T15:17:03;24.20;1.00
4727;DHT22;2377;51.734;8.950;2022-07-23T15:19:32;24.30;1.00
4727;DHT22;2377;51.734;8.950;2022-07-23T15:21:59;24.30;1.00
4727;DHT22;2377;51.734;8.950;2022-07-23T15:24:26;24.20;1.00
4727;DHT22;2377;51.734;8.950;2022-07-23T15:26:53;24.20;1.00
4727;DHT22;2377;51.734;8.950;2022-07-23T15:29:20;24.30;1.00
4727;DHT22;2377;51.734;8.950;2022-07-23T15:31:47;24.30;1.00
4727;DHT22;2377;51.734;8.950;2022-07-23T15:34:15;24.20;1.00
4727;DHT22;2377;51.734;8.950;2022-07-23T15:36:45;24.10;1.00
4727;DHT22;2377;51.734;8.950;2022-07-23T15:39:12;24.10;1.00
4727;DHT22;2377;51.734;8.950;2022-07-23T15:41:39;24.20;1.00
4727;DHT22;2377;51.734;8.950;2022-07-23T15:44:06;24.10;1.00
4727;DHT22;2377;51.734;8.950;2022-07-23T15:46:33;24.10;1.00
4727;DHT22;2377;51.734;8.950;2022-07-23T15:49:00;24.10;1.00
4727;DHT22;2377;51.734;8.950;2022-07-23T15:51:27;24.10;1.00
4727;DHT22;2377;51.734;8.950;2022-07-23T15:53:56;24.10;1.00
4727;DHT22;2377;51.734;8.950;2022-07-23T15:56:23;24.30;1.00
4727;DHT22;2377;51.734;8.950;2022-07-23T15:58:50;24.10;1.00
4727;DHT22;2377;51.734;8.950;2022-07-23T16:01:18;24.10;1.00
4727;DHT22;2377;51.734;8.950;2022-07-23T16:03:47;24.10;1.00
4727;DHT22;2377;51.734;8.950;2022-07-23T16:06:15;24.10;10.50
4727;DHT22;2377;51.734;8.950;2022-07-23T16:08:42;24.10;1.00
4727;DHT22;2377;51.734;8.950;2022-07-23T16:11:10;24.20;1.00
4727;DHT22;2377;51.734;8.950;2022-07-23T16:13:38;24.10;1.00
4727;DHT22;2377;51.734;8.950;2022-07-23T16:16:05;24.20;1.00
4727;DHT22;2377;51.734;8.950;2022-07-23T16:18:34;24.30;74.60
4727;DHT22;2377;51.734;8.950;2022-07-23T16:21:01;24.30;99.90